Perry Point, Maryland
Current Conditions -  °F | °C
As of 6:55 PM on Friday 19 Dec 2014 (Local Time) from KAPG Reporting Station
Clear Clear  
Wind Chill: 33°   Ceiling: Unl
Heat Index: 37°   Visibility: 7mi
Dew Point: 25°   Wind: 6mph
Humidity: 60%   Direction: 300°WNW
Pressure: 30.18"   Gusts: NA
Location:  39.55°N, 76.07°W
Report Text: KAPG 192355Z 30005KT 7SM SKC 03/M04 A3018
Loading
Personal Weather Stations






























Interactive Weather Map New forecast layout! Learn more

10-Day Weather Forecast

Advertisements
Track Severe Weather on mobile